Huber, Ohio
Current Conditions -  °F | °C
As of 4:58 AM on Tuesday 27 Jan 2015 (Local Time) from KFFO Reporting Station
Overcast Overcast  
Wind Chill: 14°   Ceiling: 9000
Heat Index: 14°   Visibility: 10mi
Dew Point: 10°   Wind: 3mph
Humidity: 85%   Direction: 10°N
Pressure: 29.94"   Gusts: NA
Location:  39.8476°N, 84.1086°W
Report Text: KFFO 270958Z 01003KT 10SM FEW060 BKN090 OVC160 M10/M12 A2994 RMK AO2A SLP156 T11021123
Loading
Personal Weather Stations






























Interactive Weather Map New forecast layout! Learn more

10-Day Weather Forecast

Advertisements
Track Severe Weather on mobile